sensor_id;sensor_type;location;lat;lon;timestamp;temperature;humidity
33255;DHT22;19623;52.482;9.762;2023-01-05T00:02:22;10.10;99.90
33255;DHT22;19623;52.482;9.762;2023-01-05T00:04:48;10.10;99.90
33255;DHT22;19623;52.482;9.762;2023-01-05T00:07:13;10.10;99.90
33255;DHT22;19623;52.482;9.762;2023-01-05T00:09:39;10.10;99.90
33255;DHT22;19623;52.482;9.762;2023-01-05T00:12:05;10.10;99.90
33255;DHT22;19623;52.482;9.762;2023-01-05T00:14:49;10.20;99.90
33255;DHT22;19623;52.482;9.762;2023-01-05T00:17:33;10.20;99.90
33255;DHT22;19623;52.482;9.762;2023-01-05T00:20:21;10.20;99.90
33255;DHT22;19623;52.482;9.762;2023-01-05T00:23:06;10.20;99.90
33255;DHT22;19623;52.482;9.762;2023-01-05T00:25:37;10.20;99.90
33255;DHT22;19623;52.482;9.762;2023-01-05T00:28:03;10.30;99.90
33255;DHT22;19623;52.482;9.762;2023-01-05T00:30:32;10.40;99.90
33255;DHT22;19623;52.482;9.762;2023-01-05T00:32:58;10.40;99.90
33255;DHT22;19623;52.482;9.762;2023-01-05T00:35:24;10.50;99.90
33255;DHT22;19623;52.482;9.762;2023-01-05T00:37:49;10.50;99.90
33255;DHT22;19623;52.482;9.762;2023-01-05T00:40:18;10.40;99.90
33255;DHT22;19623;52.482;9.762;2023-01-05T00:42:44;10.40;99.90
33255;DHT22;19623;52.482;9.762;2023-01-05T00:45:12;10.40;99.90
33255;DHT22;19623;52.482;9.762;2023-01-05T00:47:38;10.30;99.90
33255;DHT22;19623;52.482;9.762;2023-01-05T00:50:04;10.30;99.90
33255;DHT22;19623;52.482;9.762;2023-01-05T00:52:30;10.20;99.90
33255;DHT22;19623;52.482;9.762;2023-01-05T00:54:56;10.20;99.90
33255;DHT22;19623;52.482;9.762;2023-01-05T00:57:21;10.20;99.90
33255;DHT22;19623;52.482;9.762;2023-01-05T00:59:47;10.20;99.90
33255;DHT22;19623;52.482;9.762;2023-01-05T01:02:13;10.20;99.90
33255;DHT22;19623;52.482;9.762;2023-01-05T01:04:38;10.20;99.90
33255;DHT22;19623;52.482;9.762;2023-01-05T01:07:04;10.30;99.90
33255;DHT22;19623;52.482;9.762;2023-01-05T01:09:30;10.30;99.90
33255;DHT22;19623;52.482;9.762;2023-01-05T01:11:56;10.40;99.90
33255;DHT22;19623;52.482;9.762;2023-01-05T01:14:22;10.40;99.90
33255;DHT22;19623;52.482;9.762;2023-01-05T01:16:48;10.40;99.90
33255;DHT22;19623;52.482;9.762;2023-01-05T01:19:20;10.40;99.90
33255;DHT22;19623;52.482;9.762;2023-01-05T01:21:45;10.40;99.90
33255;DHT22;19623;52.482;9.762;2023-01-05T01:24:23;10.50;99.90
33255;DHT22;19623;52.482;9.762;2023-01-05T01:26:49;10.50;99.90
33255;DHT22;19623;52.482;9.762;2023-01-05T01:29:15;10.50;99.90
33255;DHT22;19623;52.482;9.762;2023-01-05T01:31:47;10.50;99.90
33255;DHT22;19623;52.482;9.762;2023-01-05T01:34:13;10.50;99.90
33255;DHT22;19623;52.482;9.762;2023-01-05T01:36:39;10.50;99.90
33255;DHT22;19623;52.482;9.762;2023-01-05T01:39:05;10.50;99.90
33255;DHT22;19623;52.482;9.762;2023-01-05T01:41:31;10.50;99.90
33255;DHT22;19623;52.482;9.762;2023-01-05T01:43:57;10.40;99.90
33255;DHT22;19623;52.482;9.762;2023-01-05T01:46:24;10.40;99.90
33255;DHT22;19623;52.482;9.762;2023-01-05T01:49:02;10.40;99.90
33255;DHT22;19623;52.482;9.762;2023-01-05T01:51:34;10.30;99.90
33255;DHT22;19623;52.482;9.762;2023-01-05T01:54:07;10.30;99.90
33255;DHT22;19623;52.482;9.762;2023-01-05T01:56:41;10.30;99.90
33255;DHT22;19623;52.482;9.762;2023-01-05T01:59:08;10.30;99.90
33255;DHT22;19623;52.482;9.762;2023-01-05T02:01:34;10.30;99.90
33255;DHT22;19623;52.482;9.762;2023-01-05T02:04:01;10.30;99.90
33255;DHT22;19623;52.482;9.762;2023-01-05T02:06:27;10.40;99.90
33255;DHT22;19623;52.482;9.762;2023-01-05T02:08:53;10.40;99.90
33255;DHT22;19623;52.482;9.762;2023-01-05T02:14:21;10.40;99.90
33255;DHT22;19623;52.482;9.762;2023-01-05T02:31:14;10.30;99.90
33255;DHT22;19623;52.482;9.762;2023-01-05T02:34:08;10.30;99.90
33255;DHT22;19623;52.482;9.762;2023-01-05T02:36:49;10.40;99.90
33255;DHT22;19623;52.482;9.762;2023-01-05T02:42:09;10.30;99.90
33255;DHT22;19623;52.482;9.762;2023-01-05T02:44:37;10.40;99.90
33255;DHT22;19623;52.482;9.762;2023-01-05T02:50:00;10.40;99.90
33255;DHT22;19623;52.482;9.762;2023-01-05T02:52:30;10.40;99.90
33255;DHT22;19623;52.482;9.762;2023-01-05T02:55:06;10.40;99.90
33255;DHT22;19623;52.482;9.762;2023-01-05T02:57:39;10.50;99.90
33255;DHT22;19623;52.482;9.762;2023-01-05T03:00:20;10.40;99.90
33255;DHT22;19623;52.482;9.762;2023-01-05T03:02:52;10.30;99.90
33255;DHT22;19623;52.482;9.762;2023-01-05T03:05:23;10.30;99.90
33255;DHT22;19623;52.482;9.762;2023-01-05T03:07:50;10.30;99.90
33255;DHT22;19623;52.482;9.762;2023-01-05T03:10:17;10.30;99.90
33255;DHT22;19623;52.482;9.762;2023-01-05T03:13:05;10.30;99.90
33255;DHT22;19623;52.482;9.762;2023-01-05T03:15:51;10.30;99.90
33255;DHT22;19623;52.482;9.762;2023-01-05T03:18:23;10.30;99.90
33255;DHT22;19623;52.482;9.762;2023-01-05T03:20:52;10.30;99.90
33255;DHT22;19623;52.482;9.762;2023-01-05T03:23:19;10.30;99.90
33255;DHT22;19623;52.482;9.762;2023-01-05T03:26:06;10.40;99.90
33255;DHT22;19623;52.482;9.762;2023-01-05T03:29:02;10.30;99.90
33255;DHT22;19623;52.482;9.762;2023-01-05T03:32:01;10.40;99.90
33255;DHT22;19623;52.482;9.762;2023-01-05T03:34:57;10.40;99.90
33255;DHT22;19623;52.482;9.762;2023-01-05T03:40:31;10.30;99.90
33255;DHT22;19623;52.482;9.762;2023-01-05T03:42:58;10.30;99.90
33255;DHT22;19623;52.482;9.762;2023-01-05T03:45:27;10.30;99.90
33255;DHT22;19623;52.482;9.762;2023-01-05T03:47:56;10.20;99.90
33255;DHT22;19623;52.482;9.762;2023-01-05T03:50:22;10.30;99.90
33255;DHT22;19623;52.482;9.762;2023-01-05T03:52:47;10.20;99.90
33255;DHT22;19623;52.482;9.762;2023-01-05T03:55:13;10.20;99.90
33255;DHT22;19623;52.482;9.762;2023-01-05T03:57:39;10.30;99.90
33255;DHT22;19623;52.482;9.762;2023-01-05T04:00:05;10.30;99.90
33255;DHT22;19623;52.482;9.762;2023-01-05T04:02:30;10.30;99.90
33255;DHT22;19623;52.482;9.762;2023-01-05T04:04:56;10.30;99.90
33255;DHT22;19623;52.482;9.762;2023-01-05T04:07:21;10.30;99.90
33255;DHT22;19623;52.482;9.762;2023-01-05T04:09:47;10.30;99.90
33255;DHT22;19623;52.482;9.762;2023-01-05T04:12:12;10.30;99.90
33255;DHT22;19623;52.482;9.762;2023-01-05T04:14:38;10.30;99.90
33255;DHT22;19623;52.482;9.762;2023-01-05T04:17:04;10.20;99.90
33255;DHT22;19623;52.482;9.762;2023-01-05T04:19:29;10.20;99.90
33255;DHT22;19623;52.482;9.762;2023-01-05T04:21:55;10.20;99.90
33255;DHT22;19623;52.482;9.762;2023-01-05T04:24:20;10.20;99.90
33255;DHT22;19623;52.482;9.762;2023-01-05T04:26:46;10.10;99.90
33255;DHT22;19623;52.482;9.762;2023-01-05T04:29:12;10.10;99.90
33255;DHT22;19623;52.482;9.762;2023-01-05T04:31:37;10.10;99.90
33255;DHT22;19623;52.482;9.762;2023-01-05T04:34:03;10.00;99.90
33255;DHT22;19623;52.482;9.762;2023-01-05T04:36:29;10.00;99.90
33255;DHT22;19623;52.482;9.762;2023-01-05T04:38:54;10.00;99.90
33255;DHT22;19623;52.482;9.762;2023-01-05T04:41:20;10.00;99.90
33255;DHT22;19623;52.482;9.762;2023-01-05T04:43:45;10.00;99.90
33255;DHT22;19623;52.482;9.762;2023-01-05T04:46:11;10.00;99.90
33255;DHT22;19623;52.482;9.762;2023-01-05T04:48:36;10.00;99.90
33255;DHT22;19623;52.482;9.762;2023-01-05T04:51:02;10.00;99.90
33255;DHT22;19623;52.482;9.762;2023-01-05T04:53:28;10.00;99.90
33255;DHT22;19623;52.482;9.762;2023-01-05T04:55:53;9.90;99.90
33255;DHT22;19623;52.482;9.762;2023-01-05T04:58:19;10.00;99.90
33255;DHT22;19623;52.482;9.762;2023-01-05T05:00:46;9.90;99.90
33255;DHT22;19623;52.482;9.762;2023-01-05T05:03:12;9.90;99.90
33255;DHT22;19623;52.482;9.762;2023-01-05T05:05:38;9.90;99.90
33255;DHT22;19623;52.482;9.762;2023-01-05T05:08:03;9.90;99.90
33255;DHT22;19623;52.482;9.762;2023-01-05T05:10:29;9.90;99.90
33255;DHT22;19623;52.482;9.762;2023-01-05T05:12:55;9.90;99.90
33255;DHT22;19623;52.482;9.762;2023-01-05T05:15:20;9.90;99.90
33255;DHT22;19623;52.482;9.762;2023-01-05T05:17:46;9.90;99.90
33255;DHT22;19623;52.482;9.762;2023-01-05T05:20:12;9.90;99.90
33255;DHT22;19623;52.482;9.762;2023-01-05T05:22:38;9.90;99.90
33255;DHT22;19623;52.482;9.762;2023-01-05T05:25:04;9.90;99.90
33255;DHT22;19623;52.482;9.762;2023-01-05T05:27:30;10.00;99.90
33255;DHT22;19623;52.482;9.762;2023-01-05T05:29:55;10.00;99.90
33255;DHT22;19623;52.482;9.762;2023-01-05T05:32:21;10.00;99.90
33255;DHT22;19623;52.482;9.762;2023-01-05T05:34:46;10.00;99.90
33255;DHT22;19623;52.482;9.762;2023-01-05T05:37:12;10.00;99.90
33255;DHT22;19623;52.482;9.762;2023-01-05T05:39:38;10.00;99.90
33255;DHT22;19623;52.482;9.762;2023-01-05T05:42:03;10.00;99.90
33255;DHT22;19623;52.482;9.762;2023-01-05T05:44:29;10.00;99.90
33255;DHT22;19623;52.482;9.762;2023-01-05T05:46:54;10.00;99.90
33255;DHT22;19623;52.482;9.762;2023-01-05T05:49:20;10.00;99.90
33255;DHT22;19623;52.482;9.762;2023-01-05T05:51:45;10.00;99.90
33255;DHT22;19623;52.482;9.762;2023-01-05T05:54:11;10.00;99.90
33255;DHT22;19623;52.482;9.762;2023-01-05T05:56:37;10.00;99.90
33255;DHT22;19623;52.482;9.762;2023-01-05T05:59:02;10.00;99.90
33255;DHT22;19623;52.482;9.762;2023-01-05T06:01:28;9.90;99.90
33255;DHT22;19623;52.482;9.762;2023-01-05T06:03:54;10.00;99.90
33255;DHT22;19623;52.482;9.762;2023-01-05T06:06:19;9.90;99.90
33255;DHT22;19623;52.482;9.762;2023-01-05T06:08:45;10.00;99.90
33255;DHT22;19623;52.482;9.762;2023-01-05T06:11:11;10.00;99.90
33255;DHT22;19623;52.482;9.762;2023-01-05T06:13:36;10.00;99.90
33255;DHT22;19623;52.482;9.762;2023-01-05T06:16:02;10.00;99.90
33255;DHT22;19623;52.482;9.762;2023-01-05T06:18:28;10.00;99.90
33255;DHT22;19623;52.482;9.762;2023-01-05T06:20:54;10.00;99.90
33255;DHT22;19623;52.482;9.762;2023-01-05T06:23:19;10.00;99.90
33255;DHT22;19623;52.482;9.762;2023-01-05T06:25:45;10.00;99.90
33255;DHT22;19623;52.482;9.762;2023-01-05T06:28:11;10.00;99.90
33255;DHT22;19623;52.482;9.762;2023-01-05T06:30:36;10.00;99.90
33255;DHT22;19623;52.482;9.762;2023-01-05T06:33:02;9.90;99.90
33255;DHT22;19623;52.482;9.762;2023-01-05T06:35:28;9.90;99.90
33255;DHT22;19623;52.482;9.762;2023-01-05T06:37:53;9.90;99.90
33255;DHT22;19623;52.482;9.762;2023-01-05T06:40:19;9.90;99.90
33255;DHT22;19623;52.482;9.762;2023-01-05T06:42:45;9.90;99.90
33255;DHT22;19623;52.482;9.762;2023-01-05T06:45:15;9.90;99.90
33255;DHT22;19623;52.482;9.762;2023-01-05T06:47:41;9.90;99.90
33255;DHT22;19623;52.482;9.762;2023-01-05T06:50:07;9.90;99.90
33255;DHT22;19623;52.482;9.762;2023-01-05T06:52:33;9.90;99.90
33255;DHT22;19623;52.482;9.762;2023-01-05T06:55:07;9.90;99.90
33255;DHT22;19623;52.482;9.762;2023-01-05T06:57:33;9.90;99.90
33255;DHT22;19623;52.482;9.762;2023-01-05T07:00:08;9.90;99.90
33255;DHT22;19623;52.482;9.762;2023-01-05T07:02:33;9.90;99.90
33255;DHT22;19623;52.482;9.762;2023-01-05T07:04:59;9.90;99.90
33255;DHT22;19623;52.482;9.762;2023-01-05T07:07:25;9.90;99.90
33255;DHT22;19623;52.482;9.762;2023-01-05T07:09:50;9.90;99.90
33255;DHT22;19623;52.482;9.762;2023-01-05T07:12:16;9.90;99.90
33255;DHT22;19623;52.482;9.762;2023-01-05T07:14:42;9.90;99.90
33255;DHT22;19623;52.482;9.762;2023-01-05T07:17:07;9.80;99.90
33255;DHT22;19623;52.482;9.762;2023-01-05T07:19:33;9.80;99.90
33255;DHT22;19623;52.482;9.762;2023-01-05T07:21:59;9.80;99.90
33255;DHT22;19623;52.482;9.762;2023-01-05T07:24:24;9.70;99.90
33255;DHT22;19623;52.482;9.762;2023-01-05T07:26:50;9.70;99.90
33255;DHT22;19623;52.482;9.762;2023-01-05T07:29:16;9.70;99.90
33255;DHT22;19623;52.482;9.762;2023-01-05T07:31:42;9.70;99.90
33255;DHT22;19623;52.482;9.762;2023-01-05T07:34:08;9.70;99.90
33255;DHT22;19623;52.482;9.762;2023-01-05T07:36:34;9.70;99.90
33255;DHT22;19623;52.482;9.762;2023-01-05T07:39:00;9.70;99.90
33255;DHT22;19623;52.482;9.762;2023-01-05T07:41:25;9.70;99.90
33255;DHT22;19623;52.482;9.762;2023-01-05T07:43:51;9.70;99.90
33255;DHT22;19623;52.482;9.762;2023-01-05T07:46:17;9.60;99.90
33255;DHT22;19623;52.482;9.762;2023-01-05T07:48:42;9.60;99.90
33255;DHT22;19623;52.482;9.762;2023-01-05T07:51:09;9.60;99.90
33255;DHT22;19623;52.482;9.762;2023-01-05T07:53:37;9.60;99.90
33255;DHT22;19623;52.482;9.762;2023-01-05T07:56:04;9.50;99.90
33255;DHT22;19623;52.482;9.762;2023-01-05T07:58:49;9.60;99.90
33255;DHT22;19623;52.482;9.762;2023-01-05T08:01:14;9.60;99.90
33255;DHT22;19623;52.482;9.762;2023-01-05T08:03:41;9.50;99.90
33255;DHT22;19623;52.482;9.762;2023-01-05T08:06:10;9.60;99.90
33255;DHT22;19623;52.482;9.762;2023-01-05T08:08:35;9.60;99.90
33255;DHT22;19623;52.482;9.762;2023-01-05T08:11:08;9.70;99.90
33255;DHT22;19623;52.482;9.762;2023-01-05T08:13:34;9.60;99.90
33255;DHT22;19623;52.482;9.762;2023-01-05T08:16:18;9.60;99.90
33255;DHT22;19623;52.482;9.762;2023-01-05T08:18:44;9.60;99.90
33255;DHT22;19623;52.482;9.762;2023-01-05T08:21:10;9.60;99.90
33255;DHT22;19623;52.482;9.762;2023-01-05T08:23:36;9.60;99.90
33255;DHT22;19623;52.482;9.762;2023-01-05T08:26:07;9.60;99.90
33255;DHT22;19623;52.482;9.762;2023-01-05T08:28:37;9.60;99.90
33255;DHT22;19623;52.482;9.762;2023-01-05T08:31:05;9.60;99.90
33255;DHT22;19623;52.482;9.762;2023-01-05T08:33:31;9.70;99.90
33255;DHT22;19623;52.482;9.762;2023-01-05T08:35:57;9.70;99.90
33255;DHT22;19623;52.482;9.762;2023-01-05T08:38:23;9.70;99.90
33255;DHT22;19623;52.482;9.762;2023-01-05T08:40:49;9.70;99.90
33255;DHT22;19623;52.482;9.762;2023-01-05T08:43:15;9.70;99.90
33255;DHT22;19623;52.482;9.762;2023-01-05T08:45:40;9.60;99.90
33255;DHT22;19623;52.482;9.762;2023-01-05T08:48:06;9.60;99.90
33255;DHT22;19623;52.482;9.762;2023-01-05T08:50:33;9.60;99.90
33255;DHT22;19623;52.482;9.762;2023-01-05T08:52:59;9.60;99.90
33255;DHT22;19623;52.482;9.762;2023-01-05T08:55:25;9.60;99.90
33255;DHT22;19623;52.482;9.762;2023-01-05T08:57:50;9.70;99.90
33255;DHT22;19623;52.482;9.762;2023-01-05T09:00:17;9.60;99.90
33255;DHT22;19623;52.482;9.762;2023-01-05T09:02:43;9.70;99.90
33255;DHT22;19623;52.482;9.762;2023-01-05T09:05:09;9.60;99.90
33255;DHT22;19623;52.482;9.762;2023-01-05T09:07:35;9.70;99.90
33255;DHT22;19623;52.482;9.762;2023-01-05T09:10:00;9.60;99.90
33255;DHT22;19623;52.482;9.762;2023-01-05T09:12:26;9.70;99.90
33255;DHT22;19623;52.482;9.762;2023-01-05T09:14:51;9.70;99.90
33255;DHT22;19623;52.482;9.762;2023-01-05T09:17:19;9.70;99.90
33255;DHT22;19623;52.482;9.762;2023-01-05T09:19:44;9.70;99.90
33255;DHT22;19623;52.482;9.762;2023-01-05T09:22:10;9.80;99.90
33255;DHT22;19623;52.482;9.762;2023-01-05T09:24:36;9.70;99.90
33255;DHT22;19623;52.482;9.762;2023-01-05T09:27:02;9.80;99.90
33255;DHT22;19623;52.482;9.762;2023-01-05T09:29:29;9.70;99.90
33255;DHT22;19623;52.482;9.762;2023-01-05T09:31:55;9.80;99.90
33255;DHT22;19623;52.482;9.762;2023-01-05T09:34:21;9.90;99.90
33255;DHT22;19623;52.482;9.762;2023-01-05T09:36:46;9.90;99.90
33255;DHT22;19623;52.482;9.762;2023-01-05T09:39:12;9.80;99.90
33255;DHT22;19623;52.482;9.762;2023-01-05T09:41:41;9.80;99.90
33255;DHT22;19623;52.482;9.762;2023-01-05T09:44:29;9.80;99.90
33255;DHT22;19623;52.482;9.762;2023-01-05T09:47:19;9.90;99.90
33255;DHT22;19623;52.482;9.762;2023-01-05T09:49:46;9.90;99.90
33255;DHT22;19623;52.482;9.762;2023-01-05T09:52:13;9.90;99.90
33255;DHT22;19623;52.482;9.762;2023-01-05T09:54:39;10.00;99.90
33255;DHT22;19623;52.482;9.762;2023-01-05T09:57:12;10.00;99.90
33255;DHT22;19623;52.482;9.762;2023-01-05T09:59:48;10.10;99.90
33255;DHT22;19623;52.482;9.762;2023-01-05T10:04:43;10.20;99.90
33255;DHT22;19623;52.482;9.762;2023-01-05T10:07:26;10.20;99.90
33255;DHT22;19623;52.482;9.762;2023-01-05T10:09:57;10.20;99.90
33255;DHT22;19623;52.482;9.762;2023-01-05T10:12:38;10.00;99.90
33255;DHT22;19623;52.482;9.762;2023-01-05T10:15:25;9.90;99.90
33255;DHT22;19623;52.482;9.762;2023-01-05T10:17:51;9.70;99.90
33255;DHT22;19623;52.482;9.762;2023-01-05T10:20:34;9.60;99.90
33255;DHT22;19623;52.482;9.762;2023-01-05T10:23:20;9.60;99.90
33255;DHT22;19623;52.482;9.762;2023-01-05T10:25:56;9.60;99.90
33255;DHT22;19623;52.482;9.762;2023-01-05T10:28:32;9.60;99.90
33255;DHT22;19623;52.482;9.762;2023-01-05T10:31:01;9.60;99.90
33255;DHT22;19623;52.482;9.762;2023-01-05T10:33:37;9.40;99.90
33255;DHT22;19623;52.482;9.762;2023-01-05T10:44:45;8.70;99.90
33255;DHT22;19623;52.482;9.762;2023-01-05T10:47:12;8.60;99.90
33255;DHT22;19623;52.482;9.762;2023-01-05T10:49:41;8.60;99.90
33255;DHT22;19623;52.482;9.762;2023-01-05T10:52:13;8.70;99.90
33255;DHT22;19623;52.482;9.762;2023-01-05T10:54:51;8.70;99.90
33255;DHT22;19623;52.482;9.762;2023-01-05T10:57:35;8.70;99.90
33255;DHT22;19623;52.482;9.762;2023-01-05T11:00:15;8.70;99.90
33255;DHT22;19623;52.482;9.762;2023-01-05T11:03:12;8.70;99.90
33255;DHT22;19623;52.482;9.762;2023-01-05T11:05:45;8.70;99.90
33255;DHT22;19623;52.482;9.762;2023-01-05T11:08:18;8.70;99.90
33255;DHT22;19623;52.482;9.762;2023-01-05T11:10:51;8.70;99.90
33255;DHT22;19623;52.482;9.762;2023-01-05T11:13:27;8.80;99.90
33255;DHT22;19623;52.482;9.762;2023-01-05T11:16:21;8.80;99.90
33255;DHT22;19623;52.482;9.762;2023-01-05T11:18:52;8.80;99.90
33255;DHT22;19623;52.482;9.762;2023-01-05T11:23:55;8.80;99.90
33255;DHT22;19623;52.482;9.762;2023-01-05T11:26:33;8.80;99.90
33255;DHT22;19623;52.482;9.762;2023-01-05T11:39:39;8.80;99.90
33255;DHT22;19623;52.482;9.762;2023-01-05T11:44:49;8.70;99.90
33255;DHT22;19623;52.482;9.762;2023-01-05T11:47:36;8.80;99.90
33255;DHT22;19623;52.482;9.762;2023-01-05T11:52:35;8.80;99.90
33255;DHT22;19623;52.482;9.762;2023-01-05T11:55:26;8.80;99.90
33255;DHT22;19623;52.482;9.762;2023-01-05T12:17:15;8.70;99.90
33255;DHT22;19623;52.482;9.762;2023-01-05T12:19:55;8.80;99.90
33255;DHT22;19623;52.482;9.762;2023-01-05T12:25:17;8.70;99.90
33255;DHT22;19623;52.482;9.762;2023-01-05T12:49:55;8.80;99.90
33255;DHT22;19623;52.482;9.762;2023-01-05T12:52:24;8.90;99.90
33255;DHT22;19623;52.482;9.762;2023-01-05T12:55:20;8.90;99.90
33255;DHT22;19623;52.482;9.762;2023-01-05T12:57:47;8.90;99.90
33255;DHT22;19623;52.482;9.762;2023-01-05T13:00:19;8.90;99.90
33255;DHT22;19623;52.482;9.762;2023-01-05T13:05:21;8.90;99.90
33255;DHT22;19623;52.482;9.762;2023-01-05T13:08:07;9.00;99.90
33255;DHT22;19623;52.482;9.762;2023-01-05T13:10:51;9.00;99.90
33255;DHT22;19623;52.482;9.762;2023-01-05T13:13:27;9.00;99.90
33255;DHT22;19623;52.482;9.762;2023-01-05T13:16:14;9.10;99.90
33255;DHT22;19623;52.482;9.762;2023-01-05T13:19:03;9.10;99.90
33255;DHT22;19623;52.482;9.762;2023-01-05T13:21:30;9.10;99.90
33255;DHT22;19623;52.482;9.762;2023-01-05T13:24:01;9.20;99.90
33255;DHT22;19623;52.482;9.762;2023-01-05T13:26:27;9.20;99.90
33255;DHT22;19623;52.482;9.762;2023-01-05T13:28:55;9.20;99.90
33255;DHT22;19623;52.482;9.762;2023-01-05T13:51:50;9.30;99.90
33255;DHT22;19623;52.482;9.762;2023-01-05T13:54:20;9.40;99.90
33255;DHT22;19623;52.482;9.762;2023-01-05T13:56:49;9.40;99.90
33255;DHT22;19623;52.482;9.762;2023-01-05T13:59:22;9.40;99.90
33255;DHT22;19623;52.482;9.762;2023-01-05T14:01:49;9.40;99.90
33255;DHT22;19623;52.482;9.762;2023-01-05T14:04:29;9.40;99.90
33255;DHT22;19623;52.482;9.762;2023-01-05T14:06:59;9.50;99.90
33255;DHT22;19623;52.482;9.762;2023-01-05T14:09:46;9.50;99.90
33255;DHT22;19623;52.482;9.762;2023-01-05T14:14:57;9.50;99.90
33255;DHT22;19623;52.482;9.762;2023-01-05T14:17:53;9.50;99.90
33255;DHT22;19623;52.482;9.762;2023-01-05T14:25:59;9.50;99.90
33255;DHT22;19623;52.482;9.762;2023-01-05T14:33:33;9.60;99.90
33255;DHT22;19623;52.482;9.762;2023-01-05T14:42:04;9.60;99.90
33255;DHT22;19623;52.482;9.762;2023-01-05T14:46:59;9.60;99.90
33255;DHT22;19623;52.482;9.762;2023-01-05T14:49:58;9.60;99.90
33255;DHT22;19623;52.482;9.762;2023-01-05T14:52:57;9.60;99.90
33255;DHT22;19623;52.482;9.762;2023-01-05T14:55:30;9.50;99.90
33255;DHT22;19623;52.482;9.762;2023-01-05T14:57:58;9.50;99.90
33255;DHT22;19623;52.482;9.762;2023-01-05T15:03:25;9.50;99.90
33255;DHT22;19623;52.482;9.762;2023-01-05T15:06:04;9.40;99.90
33255;DHT22;19623;52.482;9.762;2023-01-05T15:20:23;9.30;99.90
33255;DHT22;19623;52.482;9.762;2023-01-05T15:31:06;9.20;99.90
33255;DHT22;19623;52.482;9.762;2023-01-05T15:33:47;9.30;99.90
33255;DHT22;19623;52.482;9.762;2023-01-05T15:36:33;9.20;99.90
33255;DHT22;19623;52.482;9.762;2023-01-05T15:38:59;9.20;99.90
33255;DHT22;19623;52.482;9.762;2023-01-05T15:41:26;9.10;99.90
33255;DHT22;19623;52.482;9.762;2023-01-05T15:43:53;9.10;99.90
33255;DHT22;19623;52.482;9.762;2023-01-05T15:46:25;9.10;99.90
33255;DHT22;19623;52.482;9.762;2023-01-05T15:48:53;9.10;99.90
33255;DHT22;19623;52.482;9.762;2023-01-05T15:51:24;9.00;99.90
33255;DHT22;19623;52.482;9.762;2023-01-05T15:53:59;9.00;99.90
33255;DHT22;19623;52.482;9.762;2023-01-05T15:56:31;9.10;99.90
33255;DHT22;19623;52.482;9.762;2023-01-05T15:58:58;9.00;99.90
33255;DHT22;19623;52.482;9.762;2023-01-05T16:01:23;9.00;99.90
33255;DHT22;19623;52.482;9.762;2023-01-05T16:03:50;8.90;99.90
33255;DHT22;19623;52.482;9.762;2023-01-05T16:06:17;9.00;99.90
33255;DHT22;19623;52.482;9.762;2023-01-05T16:08:46;9.00;99.90
33255;DHT22;19623;52.482;9.762;2023-01-05T16:11:17;9.00;99.90
33255;DHT22;19623;52.482;9.762;2023-01-05T16:13:56;9.00;99.90
33255;DHT22;19623;52.482;9.762;2023-01-05T16:16:35;9.00;99.90
33255;DHT22;19623;52.482;9.762;2023-01-05T16:19:18;9.10;99.90
33255;DHT22;19623;52.482;9.762;2023-01-05T16:22:19;9.00;99.90
33255;DHT22;19623;52.482;9.762;2023-01-05T16:27:14;9.00;99.90
33255;DHT22;19623;52.482;9.762;2023-01-05T16:29:43;9.00;99.90
33255;DHT22;19623;52.482;9.762;2023-01-05T16:32:31;9.00;99.90
33255;DHT22;19623;52.482;9.762;2023-01-05T16:40:39;9.00;99.90
33255;DHT22;19623;52.482;9.762;2023-01-05T16:43:27;9.00;99.90
33255;DHT22;19623;52.482;9.762;2023-01-05T16:45:54;9.00;99.90
33255;DHT22;19623;52.482;9.762;2023-01-05T16:53:30;9.00;99.90
33255;DHT22;19623;52.482;9.762;2023-01-05T16:55:56;9.10;99.90
33255;DHT22;19623;52.482;9.762;2023-01-05T17:03:43;9.10;99.90
33255;DHT22;19623;52.482;9.762;2023-01-05T17:08:46;9.10;99.90
33255;DHT22;19623;52.482;9.762;2023-01-05T17:11:12;9.00;99.90
33255;DHT22;19623;52.482;9.762;2023-01-05T17:13:47;9.10;99.90
33255;DHT22;19623;52.482;9.762;2023-01-05T17:16:14;9.10;99.90
33255;DHT22;19623;52.482;9.762;2023-01-05T17:18:40;9.10;99.90
33255;DHT22;19623;52.482;9.762;2023-01-05T17:21:06;9.10;99.90
33255;DHT22;19623;52.482;9.762;2023-01-05T17:23:36;9.10;99.90
33255;DHT22;19623;52.482;9.762;2023-01-05T17:26:06;9.10;99.90
33255;DHT22;19623;52.482;9.762;2023-01-05T17:28:33;9.10;99.90
33255;DHT22;19623;52.482;9.762;2023-01-05T17:30:58;9.20;99.90
33255;DHT22;19623;52.482;9.762;2023-01-05T17:33:24;9.20;99.90
33255;DHT22;19623;52.482;9.762;2023-01-05T17:35:50;9.30;99.90
33255;DHT22;19623;52.482;9.762;2023-01-05T17:38:17;9.30;99.90
33255;DHT22;19623;52.482;9.762;2023-01-05T17:40:42;9.30;99.90
33255;DHT22;19623;52.482;9.762;2023-01-05T17:43:08;9.20;99.90
33255;DHT22;19623;52.482;9.762;2023-01-05T17:45:35;9.10;99.90
33255;DHT22;19623;52.482;9.762;2023-01-05T17:48:02;9.10;99.90
33255;DHT22;19623;52.482;9.762;2023-01-05T17:50:30;9.10;99.90
33255;DHT22;19623;52.482;9.762;2023-01-05T17:52:58;9.20;99.90
33255;DHT22;19623;52.482;9.762;2023-01-05T17:55:24;9.10;99.90
33255;DHT22;19623;52.482;9.762;2023-01-05T17:57:51;9.10;99.90
33255;DHT22;19623;52.482;9.762;2023-01-05T18:00:18;9.10;99.90
33255;DHT22;19623;52.482;9.762;2023-01-05T18:02:44;9.00;99.90
33255;DHT22;19623;52.482;9.762;2023-01-05T18:05:11;9.00;99.90
33255;DHT22;19623;52.482;9.762;2023-01-05T18:07:38;9.00;99.90
33255;DHT22;19623;52.482;9.762;2023-01-05T18:10:05;9.00;99.90
33255;DHT22;19623;52.482;9.762;2023-01-05T18:12:31;9.00;99.90
33255;DHT22;19623;52.482;9.762;2023-01-05T18:14:57;9.00;99.90
33255;DHT22;19623;52.482;9.762;2023-01-05T18:17:22;8.90;99.90
33255;DHT22;19623;52.482;9.762;2023-01-05T18:19:48;8.90;99.90
33255;DHT22;19623;52.482;9.762;2023-01-05T18:22:14;8.90;99.90
33255;DHT22;19623;52.482;9.762;2023-01-05T18:24:40;8.90;99.90
33255;DHT22;19623;52.482;9.762;2023-01-05T18:27:06;8.90;99.90
33255;DHT22;19623;52.482;9.762;2023-01-05T18:29:34;8.90;99.90
33255;DHT22;19623;52.482;9.762;2023-01-05T18:31:59;8.80;99.90
33255;DHT22;19623;52.482;9.762;2023-01-05T18:34:25;8.90;99.90
33255;DHT22;19623;52.482;9.762;2023-01-05T18:36:51;8.80;99.90
33255;DHT22;19623;52.482;9.762;2023-01-05T18:39:17;8.80;99.90
33255;DHT22;19623;52.482;9.762;2023-01-05T18:41:42;8.80;99.90
33255;DHT22;19623;52.482;9.762;2023-01-05T18:44:08;8.80;99.90
33255;DHT22;19623;52.482;9.762;2023-01-05T18:46:34;8.80;99.90
33255;DHT22;19623;52.482;9.762;2023-01-05T18:49:00;8.80;99.90
33255;DHT22;19623;52.482;9.762;2023-01-05T18:51:26;8.90;99.90
33255;DHT22;19623;52.482;9.762;2023-01-05T18:53:52;8.90;99.90
33255;DHT22;19623;52.482;9.762;2023-01-05T18:56:18;8.90;99.90
33255;DHT22;19623;52.482;9.762;2023-01-05T18:58:45;8.80;99.90
33255;DHT22;19623;52.482;9.762;2023-01-05T19:01:14;8.80;99.90
33255;DHT22;19623;52.482;9.762;2023-01-05T19:03:40;8.90;99.90
33255;DHT22;19623;52.482;9.762;2023-01-05T19:06:09;8.90;99.90